Terminal Aerodrome Forecast
Issued by NWS Jacksonville, FL

Home | Current Version | Previous Version | Text Only | Print | Product List | Glossary On
Versions: 1 2 3 4 5 6 7 8 9 10 11 12 13 14 15 16 17 18 19 20 21 22 23 24 25 26
000
FTUS42 KJAX 132300
TAFGNV
TAF
KGNV 132326Z 1400/1424 13006KT P6SM SCT130 OVC200
     FM140200 VRB02KT P6SM FEW015 SCT250
     FM141500 24005KT P6SM SCT030 BKN250
     FM141700 23007KT P6SM VCTS SCT040CB BKN060 PROB30 1417/1423
      -TSRA SCT020 BKN035CB=

USA.gov is the U.S. government's official web portal to all federal, state and local government web resources and services.